createdAt,value
2023-11-20T00:00:04.264Z,8.10
2023-11-20T00:02:31.451Z,8.10
2023-11-20T00:04:58.625Z,8.00
2023-11-20T00:07:25.664Z,8.00
2023-11-20T00:09:54.173Z,8.00
2023-11-20T00:12:24.329Z,8.00
2023-11-20T00:14:51.472Z,8.00
2023-11-20T00:17:18.540Z,7.90
2023-11-20T00:19:45.617Z,8.00
2023-11-20T00:22:12.814Z,7.90
2023-11-20T00:24:40.189Z,7.90
2023-11-20T00:27:08.658Z,7.90
2023-11-20T00:29:35.753Z,7.90
2023-11-20T00:32:02.839Z,7.90
2023-11-20T00:34:29.951Z,7.90
2023-11-20T00:36:57.130Z,7.90
2023-11-20T00:39:24.377Z,7.80
2023-11-20T00:41:51.430Z,7.80
2023-11-20T00:44:20.054Z,7.90
2023-11-20T00:46:47.333Z,7.80
2023-11-20T00:49:14.375Z,7.70
2023-11-20T00:51:41.703Z,7.70
2023-11-20T00:54:08.837Z,7.60
2023-11-20T00:56:35.979Z,7.70
2023-11-20T00:59:03.378Z,7.70
2023-11-20T01:01:35.551Z,7.70
2023-11-20T01:04:02.692Z,7.80
2023-11-20T01:06:29.804Z,7.80
2023-11-20T01:08:56.932Z,7.80
2023-11-20T01:11:24.023Z,7.70
2023-11-20T01:13:51.073Z,7.80
2023-11-20T01:16:18.126Z,7.70
2023-11-20T01:18:46.651Z,7.70
2023-11-20T01:21:13.763Z,7.70
2023-11-20T01:23:40.896Z,7.80
2023-11-20T01:26:07.999Z,7.80
2023-11-20T01:28:35.320Z,7.80
2023-11-20T01:31:02.598Z,7.80
2023-11-20T01:33:29.743Z,7.80
2023-11-20T01:35:58.229Z,7.80
2023-11-20T01:38:25.308Z,7.80
2023-11-20T01:40:55.805Z,7.80
2023-11-20T01:43:23.026Z,7.80
2023-11-20T01:45:50.704Z,7.80
2023-11-20T01:48:18.368Z,7.80
2023-11-20T01:50:49.652Z,7.80
2023-11-20T01:53:18.104Z,7.80
2023-11-20T01:55:45.806Z,7.90
2023-11-20T01:58:13.142Z,7.80
2023-11-20T02:00:40.484Z,7.90
2023-11-20T02:03:08.250Z,7.90
2023-11-20T02:05:35.455Z,7.90
2023-11-20T02:08:02.764Z,7.80
2023-11-20T02:10:31.351Z,7.80
2023-11-20T02:13:04.296Z,7.80
2023-11-20T02:15:31.585Z,7.80
2023-11-20T02:17:58.780Z,7.90
2023-11-20T02:20:25.996Z,7.80
2023-11-20T02:22:53.239Z,7.80
2023-11-20T02:25:20.614Z,7.90
2023-11-20T02:27:58.411Z,7.80
2023-11-20T02:30:28.564Z,7.80
2023-11-20T02:32:56.422Z,7.80
2023-11-20T02:35:23.585Z,7.70
2023-11-20T02:37:50.696Z,7.70
2023-11-20T02:40:17.970Z,7.80
2023-11-20T02:42:45.200Z,7.70
2023-11-20T02:45:13.253Z,7.70
2023-11-20T02:47:41.768Z,7.80
2023-11-20T02:50:09.013Z,7.90
2023-11-20T02:52:36.082Z,7.80
2023-11-20T02:55:03.580Z,7.80
2023-11-20T02:57:30.702Z,7.80
2023-11-20T02:59:57.739Z,7.80
2023-11-20T03:02:24.914Z,7.80
2023-11-20T03:04:53.422Z,7.70
2023-11-20T03:07:20.670Z,7.80
2023-11-20T03:09:47.860Z,7.70
2023-11-20T03:12:14.932Z,7.70
2023-11-20T03:14:42.094Z,7.70
2023-11-20T03:17:09.255Z,7.70
2023-11-20T03:19:36.412Z,7.80
2023-11-20T03:22:05.195Z,7.70
2023-11-20T03:24:32.368Z,7.80
2023-11-20T03:26:59.465Z,7.80
2023-11-20T03:29:26.554Z,7.90
2023-11-20T03:31:53.673Z,7.90
2023-11-20T03:34:20.817Z,7.90
2023-11-20T03:36:48.041Z,7.90
2023-11-20T03:39:16.546Z,7.90
2023-11-20T03:41:43.632Z,7.80
2023-11-20T03:44:10.760Z,7.80
2023-11-20T03:46:37.902Z,7.90
2023-11-20T03:49:05.148Z,7.90
2023-11-20T03:51:32.294Z,7.90
2023-11-20T03:53:59.370Z,7.90
2023-11-20T03:56:27.800Z,7.90
2023-11-20T03:58:55.230Z,7.90
2023-11-20T04:01:22.270Z,7.90
2023-11-20T04:03:49.408Z,7.90
2023-11-20T04:06:16.508Z,7.90
2023-11-20T04:08:43.709Z,7.90
2023-11-20T04:11:10.887Z,7.90
2023-11-20T04:13:39.407Z,7.90
2023-11-20T04:16:08.305Z,7.90
2023-11-20T04:18:35.737Z,7.90
2023-11-20T04:21:03.451Z,7.80
2023-11-20T04:23:30.818Z,7.80
2023-11-20T04:25:57.958Z,7.80
2023-11-20T04:28:25.035Z,7.90
2023-11-20T04:30:53.625Z,7.90
2023-11-20T04:33:20.769Z,7.90
2023-11-20T04:35:47.829Z,7.90
2023-11-20T04:38:14.955Z,7.90
2023-11-20T04:40:42.184Z,8.00
2023-11-20T04:43:09.394Z,8.00
2023-11-20T04:45:36.528Z,7.90
2023-11-20T04:48:05.506Z,7.90
2023-11-20T04:50:32.633Z,7.90
2023-11-20T04:52:59.730Z,7.90
2023-11-20T04:55:27.382Z,7.90
2023-11-20T04:57:54.467Z,7.90
2023-11-20T05:00:21.898Z,7.90
2023-11-20T05:02:49.057Z,7.90
2023-11-20T05:05:17.698Z,7.90
2023-11-20T05:07:44.794Z,7.90
2023-11-20T05:10:11.959Z,7.90
2023-11-20T05:12:39.198Z,7.90
2023-11-20T05:15:07.380Z,7.90
2023-11-20T05:17:34.507Z,7.90
2023-11-20T05:20:01.644Z,7.80
2023-11-20T05:22:30.092Z,7.80
2023-11-20T05:24:57.212Z,7.80
2023-11-20T05:27:25.186Z,7.70
2023-11-20T05:29:52.320Z,7.70
2023-11-20T05:32:19.443Z,7.70
2023-11-20T05:34:47.039Z,7.70
2023-11-20T05:37:14.175Z,7.70
2023-11-20T05:39:42.699Z,7.60
2023-11-20T05:42:09.808Z,7.70
2023-11-20T05:44:36.989Z,7.80
2023-11-20T05:47:04.654Z,7.80
2023-11-20T05:49:31.733Z,7.70
2023-11-20T05:51:58.781Z,7.70
2023-11-20T05:54:25.878Z,7.80
2023-11-20T05:56:54.329Z,7.70
2023-11-20T05:59:21.373Z,7.70
2023-11-20T06:01:48.604Z,7.70
2023-11-20T06:04:15.995Z,7.70
2023-11-20T06:06:43.184Z,7.70
2023-11-20T06:09:10.303Z,7.70
2023-11-20T06:11:37.885Z,7.70
2023-11-20T06:14:06.355Z,7.70
2023-11-20T06:16:33.527Z,7.70
2023-11-20T06:19:00.750Z,9.20
2023-11-20T06:21:27.838Z,9.90
2023-11-20T06:23:54.923Z,10.10
2023-11-20T06:26:22.024Z,9.20
2023-11-20T06:28:49.036Z,9.00
2023-11-20T06:31:17.491Z,8.70
2023-11-20T06:33:45.019Z,8.40
2023-11-20T06:36:12.102Z,8.20
2023-11-20T06:38:39.258Z,8.10
2023-11-20T06:41:06.451Z,8.00
2023-11-20T06:43:33.655Z,8.10
2023-11-20T06:46:00.749Z,8.30
2023-11-20T06:48:29.665Z,8.20
2023-11-20T06:50:56.808Z,8.10
2023-11-20T06:53:23.901Z,8.00
2023-11-20T06:55:51.046Z,8.00
2023-11-20T06:58:18.207Z,8.10
2023-11-20T07:00:45.381Z,8.10
2023-11-20T07:03:12.844Z,8.00
2023-11-20T07:05:41.431Z,7.90
2023-11-20T07:08:08.675Z,7.90
2023-11-20T07:10:35.863Z,7.90
2023-11-20T07:15:30.112Z,7.80
2023-11-20T07:17:57.259Z,7.90
2023-11-20T07:20:24.539Z,7.90
2023-11-20T07:22:52.981Z,7.90
2023-11-20T07:25:20.313Z,7.90
2023-11-20T07:27:47.448Z,7.80
2023-11-20T07:30:14.577Z,7.90
2023-11-20T07:32:41.727Z,7.80
2023-11-20T07:35:11.285Z,7.90
2023-11-20T07:37:38.327Z,7.90
2023-11-20T07:40:11.053Z,7.90
2023-11-20T07:42:38.395Z,7.90
2023-11-20T07:45:06.856Z,7.90
2023-11-20T07:47:33.995Z,8.00
2023-11-20T07:50:02.206Z,8.00
2023-11-20T07:52:29.408Z,8.10
2023-11-20T07:54:56.619Z,8.10
2023-11-20T07:57:25.281Z,8.10
2023-11-20T07:59:53.171Z,8.00
2023-11-20T08:02:20.801Z,8.00
2023-11-20T08:04:48.089Z,7.90
2023-11-20T08:07:15.269Z,8.10
2023-11-20T08:09:42.404Z,8.20
2023-11-20T08:12:09.667Z,8.20
2023-11-20T08:14:38.174Z,8.30
2023-11-20T08:17:05.296Z,8.20
2023-11-20T08:19:32.414Z,8.20
2023-11-20T08:21:59.513Z,8.30
2023-11-20T08:24:26.817Z,8.30
2023-11-20T08:26:53.984Z,8.30
2023-11-20T08:29:21.196Z,8.30
2023-11-20T08:31:50.229Z,8.30
2023-11-20T08:34:20.281Z,8.40
2023-11-20T08:36:49.446Z,8.40
2023-11-20T08:39:16.601Z,8.40
2023-11-20T08:41:43.694Z,8.50
2023-11-20T08:44:10.917Z,8.50
2023-11-20T08:46:38.437Z,8.50
2023-11-20T08:49:07.046Z,8.60
2023-11-20T08:51:34.205Z,8.50
2023-11-20T08:54:01.976Z,8.60
2023-11-20T08:56:29.043Z,8.70
2023-11-20T08:58:56.309Z,8.80
2023-11-20T09:01:30.713Z,8.70
2023-11-20T09:03:57.966Z,8.80
2023-11-20T09:06:26.428Z,8.80
2023-11-20T09:08:53.473Z,8.80
2023-11-20T09:11:20.505Z,8.80
2023-11-20T09:13:47.590Z,8.80
2023-11-20T09:16:14.764Z,8.90
2023-11-20T09:18:41.899Z,8.90
2023-11-20T09:21:08.978Z,8.90
2023-11-20T09:23:37.415Z,9.00
2023-11-20T09:26:08.766Z,9.00
2023-11-20T09:28:35.934Z,9.10
2023-11-20T09:31:03.244Z,9.10
2023-11-20T09:33:30.337Z,9.10
2023-11-20T09:35:57.441Z,9.20
2023-11-20T09:38:24.512Z,9.20
2023-11-20T09:40:52.951Z,9.30
2023-11-20T09:43:22.676Z,9.20
2023-11-20T09:45:53.798Z,9.30
2023-11-20T09:48:25.756Z,9.30
2023-11-20T09:51:02.736Z,9.10
2023-11-20T09:53:39.336Z,9.20
2023-11-20T09:56:09.053Z,9.40
2023-11-20T09:58:36.258Z,9.30
2023-11-20T10:01:06.193Z,9.20
2023-11-20T10:03:36.769Z,9.10
2023-11-20T10:06:07.715Z,9.30
2023-11-20T10:08:36.507Z,9.40
2023-11-20T10:11:03.989Z,9.40
2023-11-20T10:13:34.016Z,9.40
2023-11-20T10:16:02.066Z,9.40
2023-11-20T10:18:29.589Z,9.50
2023-11-20T10:20:58.235Z,9.50
2023-11-20T10:23:25.324Z,9.40
2023-11-20T10:25:52.427Z,9.50
2023-11-20T10:28:22.841Z,9.50
2023-11-20T10:30:52.278Z,9.40
2023-11-20T10:33:20.416Z,9.40
2023-11-20T10:35:47.790Z,9.60
2023-11-20T10:38:15.329Z,9.60
2023-11-20T10:40:43.619Z,9.70
2023-11-20T10:43:11.004Z,9.80
2023-11-20T10:45:38.732Z,9.50
2023-11-20T10:48:08.152Z,9.60
2023-11-20T10:50:36.600Z,9.60
2023-11-20T10:53:04.626Z,9.80
2023-11-20T10:55:32.356Z,9.70
2023-11-20T10:58:03.068Z,9.80
2023-11-20T11:00:30.362Z,9.60
2023-11-20T11:03:07.570Z,9.60
2023-11-20T11:05:42.054Z,9.60
2023-11-20T11:08:11.606Z,9.60
2023-11-20T11:10:39.710Z,9.60
2023-11-20T11:13:07.497Z,9.80
2023-11-20T11:15:34.917Z,9.90
2023-11-20T11:18:04.638Z,9.70
2023-11-20T11:20:40.580Z,9.70
2023-11-20T11:23:09.799Z,9.90
2023-11-20T11:25:40.772Z,10.00
2023-11-20T11:28:11.716Z,9.90
2023-11-20T11:30:41.294Z,9.80
2023-11-20T11:33:40.211Z,9.80
2023-11-20T11:36:28.402Z,9.80
2023-11-20T11:39:03.165Z,10.00
2023-11-20T11:41:44.253Z,10.00
2023-11-20T11:44:17.337Z,10.00
2023-11-20T11:46:44.680Z,9.80
2023-11-20T11:49:17.679Z,9.90
2023-11-20T11:51:44.784Z,9.90
2023-11-20T11:54:18.193Z,10.10
2023-11-20T11:57:09.466Z,10.10
2023-11-20T11:59:41.096Z,10.10
2023-11-20T12:02:09.884Z,10.00
2023-11-20T12:05:02.573Z,9.90
2023-11-20T12:07:49.598Z,9.90
2023-11-20T12:10:18.803Z,10.20
2023-11-20T12:13:08.318Z,10.20
2023-11-20T12:15:36.446Z,10.20
2023-11-20T12:18:06.402Z,10.30
2023-11-20T12:20:34.688Z,10.40
2023-11-20T12:23:02.399Z,10.40
2023-11-20T12:25:31.362Z,10.10
2023-11-20T12:27:58.540Z,10.00
2023-11-20T12:30:25.762Z,10.20
2023-11-20T12:32:52.863Z,10.10
2023-11-20T12:35:20.033Z,10.20
2023-11-20T12:37:47.139Z,10.30
2023-11-20T12:40:14.430Z,10.30
2023-11-20T12:42:43.324Z,10.40
2023-11-20T12:45:11.010Z,10.50
2023-11-20T12:47:38.403Z,10.40
2023-11-20T12:50:06.384Z,10.50
2023-11-20T12:52:33.536Z,10.50
2023-11-20T12:55:02.022Z,10.50
2023-11-20T12:57:30.120Z,10.50
2023-11-20T12:59:58.645Z,10.50
2023-11-20T13:02:25.829Z,10.60
2023-11-20T13:04:53.136Z,10.60
2023-11-20T13:07:22.639Z,10.70
2023-11-20T13:09:50.842Z,10.70
2023-11-20T13:12:18.110Z,10.70
2023-11-20T13:15:02.754Z,10.50
2023-11-20T13:17:29.966Z,10.10
2023-11-20T13:19:57.215Z,10.10
2023-11-20T13:22:24.477Z,10.00
2023-11-20T13:24:56.848Z,10.00
2023-11-20T13:27:25.170Z,10.10
2023-11-20T13:30:13.657Z,9.90
2023-11-20T13:32:44.132Z,9.80
2023-11-20T13:35:11.468Z,10.00
2023-11-20T13:37:42.769Z,9.80
2023-11-20T13:40:10.906Z,9.90
2023-11-20T13:42:38.506Z,9.80
2023-11-20T13:45:07.094Z,9.70
2023-11-20T13:47:37.564Z,9.90
2023-11-20T13:50:05.642Z,9.90
2023-11-20T13:52:37.257Z,10.00
2023-11-20T13:55:05.218Z,9.90
2023-11-20T13:57:32.567Z,9.80
2023-11-20T13:59:59.802Z,9.80
2023-11-20T14:02:26.985Z,9.70
2023-11-20T14:04:56.314Z,9.60
2023-11-20T14:07:23.389Z,9.90
2023-11-20T14:09:50.488Z,10.40
2023-11-20T14:12:17.639Z,10.90
2023-11-20T14:14:44.664Z,11.40
2023-11-20T14:17:11.710Z,11.50
2023-11-20T14:19:38.722Z,12.20
2023-11-20T14:22:07.236Z,12.30
2023-11-20T14:24:34.344Z,12.00
2023-11-20T14:27:01.379Z,11.80
2023-11-20T14:29:28.622Z,11.60
2023-11-20T14:31:55.896Z,11.40
2023-11-20T14:34:23.075Z,11.20
2023-11-20T14:36:50.141Z,11.00
2023-11-20T14:39:18.570Z,10.80
2023-11-20T14:41:45.746Z,10.70
2023-11-20T14:44:13.029Z,10.60
2023-11-20T14:46:40.330Z,10.60
2023-11-20T14:49:07.620Z,10.50
2023-11-20T14:51:34.858Z,10.50
2023-11-20T14:54:02.767Z,10.40
2023-11-20T14:56:31.204Z,10.40
2023-11-20T14:58:58.302Z,10.30
2023-11-20T15:01:26.930Z,10.20
2023-11-20T15:03:56.260Z,10.10
2023-11-20T15:06:23.515Z,10.10
2023-11-20T15:08:50.574Z,10.10
2023-11-20T15:11:17.822Z,10.10
2023-11-20T15:13:49.293Z,10.10
2023-11-20T15:16:16.561Z,10.10
2023-11-20T15:18:44.588Z,9.90
2023-11-20T15:21:12.494Z,9.90
2023-11-20T15:23:39.620Z,9.90
2023-11-20T15:26:06.941Z,9.90
2023-11-20T15:28:34.060Z,9.80
2023-11-20T15:31:02.543Z,9.80
2023-11-20T15:33:29.691Z,9.80
2023-11-20T15:35:56.832Z,9.70
2023-11-20T15:38:23.960Z,9.70
2023-11-20T15:40:51.682Z,9.70
2023-11-20T15:43:18.817Z,9.60
2023-11-20T15:45:45.976Z,9.60
2023-11-20T15:48:14.645Z,9.60
2023-11-20T15:50:41.789Z,9.60
2023-11-20T15:53:09.844Z,9.50
2023-11-20T15:55:36.990Z,9.50
2023-11-20T15:58:04.140Z,9.50
2023-11-20T16:00:31.456Z,9.40
2023-11-20T16:02:58.705Z,9.40
2023-11-20T16:05:27.279Z,9.30
2023-11-20T16:07:54.348Z,9.30
2023-11-20T16:10:21.462Z,9.30
2023-11-20T16:12:48.613Z,9.20
2023-11-20T16:15:16.150Z,9.20
2023-11-20T16:17:43.266Z,9.20
2023-11-20T16:20:11.453Z,9.10
2023-11-20T16:22:39.867Z,9.20
2023-11-20T16:25:08.175Z,9.20
2023-11-20T16:27:37.326Z,9.20
2023-11-20T16:30:05.458Z,9.30
2023-11-20T16:32:32.618Z,9.20
2023-11-20T16:34:59.699Z,9.30
2023-11-20T16:37:26.792Z,9.30
2023-11-20T16:39:55.257Z,9.30
2023-11-20T16:42:22.480Z,9.30
2023-11-20T16:44:49.659Z,9.30
2023-11-20T16:47:18.418Z,9.30
2023-11-20T16:49:45.552Z,9.20
2023-11-20T16:52:12.691Z,9.30
2023-11-20T16:54:39.778Z,9.30
2023-11-20T16:57:08.401Z,9.30
2023-11-20T16:59:35.487Z,9.20
2023-11-20T17:02:05.568Z,9.20
2023-11-20T17:04:32.692Z,9.10
2023-11-20T17:06:59.930Z,9.20
2023-11-20T17:09:27.162Z,9.20
2023-11-20T17:11:54.257Z,9.20
2023-11-20T17:14:22.801Z,9.20
2023-11-20T17:16:54.409Z,9.20
2023-11-20T17:19:23.737Z,9.20
2023-11-20T17:21:53.729Z,9.20
2023-11-20T17:24:20.812Z,9.10
2023-11-20T17:26:47.888Z,9.10
2023-11-20T17:29:15.274Z,9.10
2023-11-20T17:31:43.782Z,9.10
2023-11-20T17:34:15.728Z,9.10
2023-11-20T17:36:44.298Z,9.10
2023-11-20T17:39:11.348Z,9.10
2023-11-20T17:41:39.220Z,9.10
2023-11-20T17:44:06.323Z,9.20
2023-11-20T17:46:33.521Z,9.10
2023-11-20T17:49:02.024Z,9.10
2023-11-20T17:51:30.870Z,9.10
2023-11-20T17:53:57.952Z,9.10
2023-11-20T17:56:25.063Z,9.10
2023-11-20T17:58:52.182Z,9.10
2023-11-20T18:01:19.751Z,9.00
2023-11-20T18:03:47.123Z,9.00
2023-11-20T18:06:15.680Z,9.00
2023-11-20T18:08:42.915Z,9.00
2023-11-20T18:11:09.988Z,8.90
2023-11-20T18:13:37.186Z,8.90
2023-11-20T18:16:05.208Z,8.80
2023-11-20T18:18:32.416Z,8.80
2023-11-20T18:20:59.539Z,8.70
2023-11-20T18:23:28.051Z,8.70
2023-11-20T18:25:55.144Z,8.70
2023-11-20T18:28:22.323Z,8.60
2023-11-20T18:30:49.409Z,8.70
2023-11-20T18:33:16.945Z,8.70
2023-11-20T18:35:44.102Z,8.80
2023-11-20T18:38:11.257Z,8.70
2023-11-20T18:40:39.844Z,8.80
2023-11-20T18:43:06.995Z,8.70
2023-11-20T18:45:34.125Z,8.80
2023-11-20T18:48:01.671Z,8.80
2023-11-20T18:50:28.768Z,8.80
2023-11-20T18:52:56.010Z,8.80
2023-11-20T18:55:23.117Z,8.80
2023-11-20T18:57:51.645Z,8.80
2023-11-20T19:00:20.782Z,8.80
2023-11-20T19:02:48.119Z,8.70
2023-11-20T19:05:15.593Z,8.60
2023-11-20T19:07:43.450Z,8.60
2023-11-20T19:10:11.139Z,8.60
2023-11-20T19:12:38.353Z,8.60
2023-11-20T19:15:09.476Z,8.60
2023-11-20T19:17:36.633Z,8.60
2023-11-20T19:20:04.229Z,8.70
2023-11-20T19:22:31.394Z,8.70
2023-11-20T19:24:58.674Z,8.60
2023-11-20T19:27:25.725Z,8.60
2023-11-20T19:29:52.797Z,8.60
2023-11-20T19:32:21.306Z,8.70
2023-11-20T19:34:48.428Z,8.50
2023-11-20T19:37:15.844Z,8.60
2023-11-20T19:39:45.144Z,8.50
2023-11-20T19:42:12.369Z,8.50
2023-11-20T19:44:48.418Z,8.50
2023-11-20T19:47:15.708Z,8.40
2023-11-20T19:49:44.279Z,8.50
2023-11-20T19:52:11.415Z,8.50
2023-11-20T19:54:38.534Z,8.50
2023-11-20T19:57:05.970Z,8.50
2023-11-20T19:59:33.031Z,8.40
2023-11-20T20:02:00.180Z,8.50
2023-11-20T20:04:27.400Z,8.50
2023-11-20T20:06:55.882Z,8.50
2023-11-20T20:09:24.038Z,8.30
2023-11-20T20:11:52.823Z,8.40
2023-11-20T20:14:19.941Z,8.40
2023-11-20T20:16:47.200Z,8.40
2023-11-20T20:19:14.435Z,8.30
2023-11-20T20:21:42.565Z,8.80
2023-11-20T20:24:11.127Z,8.60
2023-11-20T20:26:38.274Z,8.90
2023-11-20T20:29:07.056Z,8.70
2023-11-20T20:31:34.253Z,8.70
2023-11-20T20:34:01.369Z,8.70
2023-11-20T20:36:28.591Z,8.60
2023-11-20T20:38:56.518Z,8.70
2023-11-20T20:41:25.333Z,8.60
2023-11-20T20:43:53.013Z,8.70
2023-11-20T20:46:20.233Z,8.70
2023-11-20T20:48:47.329Z,8.70
2023-11-20T20:51:14.526Z,8.70
2023-11-20T20:53:41.706Z,8.70
2023-11-20T20:56:09.646Z,8.70
2023-11-20T20:58:38.182Z,8.70
2023-11-20T21:01:05.948Z,8.70
2023-11-20T21:03:33.272Z,8.70
2023-11-20T21:06:00.507Z,8.70
2023-11-20T21:08:27.695Z,8.70
2023-11-20T21:10:54.913Z,8.70
2023-11-20T21:13:22.159Z,8.70
2023-11-20T21:15:50.629Z,8.70
2023-11-20T21:18:17.774Z,8.60
2023-11-20T21:20:44.958Z,8.60
2023-11-20T21:23:12.091Z,8.50
2023-11-20T21:25:39.210Z,8.60
2023-11-20T21:28:06.473Z,8.50
2023-11-20T21:30:33.665Z,8.60
2023-11-20T21:33:02.184Z,8.60
2023-11-20T21:35:40.981Z,8.60
2023-11-20T21:38:14.662Z,8.70
2023-11-20T21:40:41.817Z,8.70
2023-11-20T21:43:09.127Z,8.80
2023-11-20T21:45:37.937Z,8.80
2023-11-20T21:48:08.107Z,8.70
2023-11-20T21:50:35.279Z,8.70
2023-11-20T21:53:02.383Z,8.80
2023-11-20T21:55:29.506Z,8.80
2023-11-20T21:57:56.765Z,8.70
2023-11-20T22:00:24.177Z,8.90
2023-11-20T22:02:51.379Z,8.80
2023-11-20T22:05:20.120Z,8.90
2023-11-20T22:07:47.263Z,8.80
2023-11-20T22:10:14.408Z,8.80
2023-11-20T22:12:41.581Z,8.80
2023-11-20T22:15:09.838Z,8.90
2023-11-20T22:17:37.456Z,8.90
2023-11-20T22:20:06.034Z,8.80
2023-11-20T22:22:34.737Z,8.70
2023-11-20T22:25:01.843Z,8.70
2023-11-20T22:27:29.671Z,8.60
2023-11-20T22:29:56.974Z,8.60
2023-11-20T22:32:31.857Z,8.50
2023-11-20T22:35:10.151Z,8.50
2023-11-20T22:37:47.621Z,8.40
2023-11-20T22:40:15.012Z,8.50
2023-11-20T22:42:42.460Z,8.40
2023-11-20T22:45:10.176Z,8.40
2023-11-20T22:47:37.791Z,8.50
2023-11-20T22:50:06.275Z,8.40
2023-11-20T22:52:33.602Z,8.50
2023-11-20T22:55:02.087Z,8.50
2023-11-20T22:57:29.198Z,8.50
2023-11-20T22:59:56.466Z,8.50
2023-11-20T23:02:23.748Z,8.50
2023-11-20T23:04:51.108Z,8.60
2023-11-20T23:07:18.418Z,8.50
2023-11-20T23:09:47.152Z,8.50
2023-11-20T23:12:15.634Z,8.50
2023-11-20T23:14:42.805Z,8.50
2023-11-20T23:17:09.922Z,8.50
2023-11-20T23:19:37.206Z,8.50
2023-11-20T23:22:05.696Z,8.50
2023-11-20T23:24:33.808Z,8.60
2023-11-20T23:27:01.870Z,8.50
2023-11-20T23:29:30.360Z,8.50
2023-11-20T23:31:57.645Z,8.50
2023-11-20T23:34:24.783Z,8.40
2023-11-20T23:36:51.949Z,8.40
2023-11-20T23:39:19.010Z,8.30
2023-11-20T23:41:46.081Z,8.30
2023-11-20T23:44:13.221Z,8.30
2023-11-20T23:46:41.730Z,8.30
2023-11-20T23:49:08.935Z,8.30
2023-11-20T23:51:36.358Z,8.40
2023-11-20T23:54:03.758Z,8.40
2023-11-20T23:56:31.647Z,8.40
2023-11-20T23:58:58.746Z,8.40
